sensor_id;sensor_type;location;lat;lon;timestamp;temperature;humidity
29939;DHT22;16799;50.844;5.304;2022-10-26T00:01:28;12.70;99.90
29939;DHT22;16799;50.844;5.304;2022-10-26T00:03:55;12.60;99.90
29939;DHT22;16799;50.844;5.304;2022-10-26T00:06:23;12.60;99.90
29939;DHT22;16799;50.844;5.304;2022-10-26T00:08:56;12.70;99.90
29939;DHT22;16799;50.844;5.304;2022-10-26T00:11:22;12.60;99.90
29939;DHT22;16799;50.844;5.304;2022-10-26T00:13:48;12.50;99.90
29939;DHT22;16799;50.844;5.304;2022-10-26T00:16:22;12.50;99.90
29939;DHT22;16799;50.844;5.304;2022-10-26T00:18:48;12.50;99.90
29939;DHT22;16799;50.844;5.304;2022-10-26T00:21:14;12.50;99.90
29939;DHT22;16799;50.844;5.304;2022-10-26T00:23:40;12.50;99.90
29939;DHT22;16799;50.844;5.304;2022-10-26T00:26:06;12.60;99.90
29939;DHT22;16799;50.844;5.304;2022-10-26T00:28:32;12.50;99.90
29939;DHT22;16799;50.844;5.304;2022-10-26T00:31:03;12.50;99.90
29939;DHT22;16799;50.844;5.304;2022-10-26T00:33:29;12.50;99.90
29939;DHT22;16799;50.844;5.304;2022-10-26T00:35:55;12.40;99.90
29939;DHT22;16799;50.844;5.304;2022-10-26T00:38:21;12.50;99.90
29939;DHT22;16799;50.844;5.304;2022-10-26T00:40:47;12.50;99.90
29939;DHT22;16799;50.844;5.304;2022-10-26T00:43:34;12.50;99.90
29939;DHT22;16799;50.844;5.304;2022-10-26T00:46:01;12.70;99.90
29939;DHT22;16799;50.844;5.304;2022-10-26T00:48:35;12.80;99.90
29939;DHT22;16799;50.844;5.304;2022-10-26T00:51:08;12.80;99.90
29939;DHT22;16799;50.844;5.304;2022-10-26T00:53:35;12.80;99.90
29939;DHT22;16799;50.844;5.304;2022-10-26T00:56:01;13.00;99.90
29939;DHT22;16799;50.844;5.304;2022-10-26T00:58:27;13.10;99.90
29939;DHT22;16799;50.844;5.304;2022-10-26T01:00:53;13.30;99.90
29939;DHT22;16799;50.844;5.304;2022-10-26T01:03:19;13.30;99.90
29939;DHT22;16799;50.844;5.304;2022-10-26T01:05:47;13.20;99.90
29939;DHT22;16799;50.844;5.304;2022-10-26T01:08:13;13.40;99.90
29939;DHT22;16799;50.844;5.304;2022-10-26T01:10:41;13.40;99.90
29939;DHT22;16799;50.844;5.304;2022-10-26T01:13:07;13.40;99.90
29939;DHT22;16799;50.844;5.304;2022-10-26T01:18:29;13.40;99.90
29939;DHT22;16799;50.844;5.304;2022-10-26T01:26:52;13.40;99.90
29939;DHT22;16799;50.844;5.304;2022-10-26T01:29:50;13.30;99.90
29939;DHT22;16799;50.844;5.304;2022-10-26T01:32:25;13.40;99.90
29939;DHT22;16799;50.844;5.304;2022-10-26T01:35:02;13.40;99.90
29939;DHT22;16799;50.844;5.304;2022-10-26T01:37:33;13.50;99.90
29939;DHT22;16799;50.844;5.304;2022-10-26T01:40:12;13.60;99.90
29939;DHT22;16799;50.844;5.304;2022-10-26T01:42:41;13.50;99.90
29939;DHT22;16799;50.844;5.304;2022-10-26T01:45:09;13.60;99.90
29939;DHT22;16799;50.844;5.304;2022-10-26T01:47:37;13.60;99.90
29939;DHT22;16799;50.844;5.304;2022-10-26T01:50:05;13.60;99.90
29939;DHT22;16799;50.844;5.304;2022-10-26T01:52:31;13.70;99.90
29939;DHT22;16799;50.844;5.304;2022-10-26T01:55:02;13.70;99.90
29939;DHT22;16799;50.844;5.304;2022-10-26T01:57:31;13.80;99.90
29939;DHT22;16799;50.844;5.304;2022-10-26T02:10:32;13.90;99.90
29939;DHT22;16799;50.844;5.304;2022-10-26T02:13:11;14.00;99.90
29939;DHT22;16799;50.844;5.304;2022-10-26T02:15:52;14.00;99.90
29939;DHT22;16799;50.844;5.304;2022-10-26T02:18:37;14.10;99.90
29939;DHT22;16799;50.844;5.304;2022-10-26T02:21:10;13.90;99.90
29939;DHT22;16799;50.844;5.304;2022-10-26T02:23:38;13.90;99.90
29939;DHT22;16799;50.844;5.304;2022-10-26T02:26:08;13.90;99.90
29939;DHT22;16799;50.844;5.304;2022-10-26T02:28:37;13.90;99.90
29939;DHT22;16799;50.844;5.304;2022-10-26T02:31:05;13.90;99.90
29939;DHT22;16799;50.844;5.304;2022-10-26T02:33:36;14.10;99.90
29939;DHT22;16799;50.844;5.304;2022-10-26T02:36:06;14.30;99.90
29939;DHT22;16799;50.844;5.304;2022-10-26T02:38:34;14.30;99.90
29939;DHT22;16799;50.844;5.304;2022-10-26T02:41:01;14.60;99.90
29939;DHT22;16799;50.844;5.304;2022-10-26T02:43:29;14.90;99.90
29939;DHT22;16799;50.844;5.304;2022-10-26T02:46:07;15.10;99.90
29939;DHT22;16799;50.844;5.304;2022-10-26T02:48:35;15.20;99.90
29939;DHT22;16799;50.844;5.304;2022-10-26T02:51:10;15.20;99.90
29939;DHT22;16799;50.844;5.304;2022-10-26T02:53:51;15.40;99.90
29939;DHT22;16799;50.844;5.304;2022-10-26T02:56:29;15.40;99.90
29939;DHT22;16799;50.844;5.304;2022-10-26T02:59:02;15.40;99.90
29939;DHT22;16799;50.844;5.304;2022-10-26T03:01:29;15.50;99.90
29939;DHT22;16799;50.844;5.304;2022-10-26T03:03:58;15.60;99.90
29939;DHT22;16799;50.844;5.304;2022-10-26T03:06:25;15.70;99.90
29939;DHT22;16799;50.844;5.304;2022-10-26T03:08:50;15.70;99.90
29939;DHT22;16799;50.844;5.304;2022-10-26T03:11:17;15.60;99.90
29939;DHT22;16799;50.844;5.304;2022-10-26T03:13:42;15.50;99.90
29939;DHT22;16799;50.844;5.304;2022-10-26T03:16:08;15.50;99.90
29939;DHT22;16799;50.844;5.304;2022-10-26T03:18:34;15.40;99.90
29939;DHT22;16799;50.844;5.304;2022-10-26T03:21:00;15.60;99.90
29939;DHT22;16799;50.844;5.304;2022-10-26T03:23:25;15.60;99.90
29939;DHT22;16799;50.844;5.304;2022-10-26T03:25:55;15.60;99.90
29939;DHT22;16799;50.844;5.304;2022-10-26T03:28:21;15.60;99.90
29939;DHT22;16799;50.844;5.304;2022-10-26T03:30:47;15.40;99.90
29939;DHT22;16799;50.844;5.304;2022-10-26T03:33:13;15.30;99.90
29939;DHT22;16799;50.844;5.304;2022-10-26T03:35:38;15.40;99.90
29939;DHT22;16799;50.844;5.304;2022-10-26T03:38:04;15.50;99.90
29939;DHT22;16799;50.844;5.304;2022-10-26T03:40:29;15.60;99.90
29939;DHT22;16799;50.844;5.304;2022-10-26T03:42:55;15.60;99.90
29939;DHT22;16799;50.844;5.304;2022-10-26T03:45:21;15.70;99.90
29939;DHT22;16799;50.844;5.304;2022-10-26T03:47:47;15.70;99.90
29939;DHT22;16799;50.844;5.304;2022-10-26T03:50:16;15.90;99.90
29939;DHT22;16799;50.844;5.304;2022-10-26T03:52:43;15.90;99.90
29939;DHT22;16799;50.844;5.304;2022-10-26T03:55:09;15.90;99.90
29939;DHT22;16799;50.844;5.304;2022-10-26T03:57:44;16.00;99.90
29939;DHT22;16799;50.844;5.304;2022-10-26T04:00:12;15.90;99.90
29939;DHT22;16799;50.844;5.304;2022-10-26T04:02:40;16.00;99.90
29939;DHT22;16799;50.844;5.304;2022-10-26T04:05:06;16.10;99.90
29939;DHT22;16799;50.844;5.304;2022-10-26T04:07:32;16.10;99.90
29939;DHT22;16799;50.844;5.304;2022-10-26T04:09:58;16.10;99.90
29939;DHT22;16799;50.844;5.304;2022-10-26T04:12:23;16.00;99.90
29939;DHT22;16799;50.844;5.304;2022-10-26T04:14:50;16.10;99.90
29939;DHT22;16799;50.844;5.304;2022-10-26T04:17:16;16.10;99.90
29939;DHT22;16799;50.844;5.304;2022-10-26T04:19:41;16.10;99.90
29939;DHT22;16799;50.844;5.304;2022-10-26T04:22:07;16.10;99.90
29939;DHT22;16799;50.844;5.304;2022-10-26T04:24:33;16.20;99.90
29939;DHT22;16799;50.844;5.304;2022-10-26T04:26:58;16.20;99.90
29939;DHT22;16799;50.844;5.304;2022-10-26T04:29:24;16.20;99.90
29939;DHT22;16799;50.844;5.304;2022-10-26T04:31:49;16.30;99.90
29939;DHT22;16799;50.844;5.304;2022-10-26T04:34:15;16.30;99.90
29939;DHT22;16799;50.844;5.304;2022-10-26T04:36:41;16.20;99.90
29939;DHT22;16799;50.844;5.304;2022-10-26T04:39:06;16.20;99.90
29939;DHT22;16799;50.844;5.304;2022-10-26T04:41:32;16.30;99.90
29939;DHT22;16799;50.844;5.304;2022-10-26T04:43:57;16.30;99.90
29939;DHT22;16799;50.844;5.304;2022-10-26T04:46:23;16.30;99.90
29939;DHT22;16799;50.844;5.304;2022-10-26T04:48:49;16.30;99.90
29939;DHT22;16799;50.844;5.304;2022-10-26T04:51:14;16.30;99.90
29939;DHT22;16799;50.844;5.304;2022-10-26T04:53:40;16.30;99.90
29939;DHT22;16799;50.844;5.304;2022-10-26T04:56:06;16.20;99.90
29939;DHT22;16799;50.844;5.304;2022-10-26T04:58:31;16.10;99.90
29939;DHT22;16799;50.844;5.304;2022-10-26T05:00:57;15.90;99.90
29939;DHT22;16799;50.844;5.304;2022-10-26T05:03:23;15.80;99.90
29939;DHT22;16799;50.844;5.304;2022-10-26T05:05:48;15.60;99.90
29939;DHT22;16799;50.844;5.304;2022-10-26T05:08:15;15.50;99.90
29939;DHT22;16799;50.844;5.304;2022-10-26T05:10:41;15.50;99.90
29939;DHT22;16799;50.844;5.304;2022-10-26T05:13:08;15.50;99.90
29939;DHT22;16799;50.844;5.304;2022-10-26T05:15:34;15.60;99.90
29939;DHT22;16799;50.844;5.304;2022-10-26T05:18:02;15.50;99.90
29939;DHT22;16799;50.844;5.304;2022-10-26T05:20:29;15.60;99.90
29939;DHT22;16799;50.844;5.304;2022-10-26T05:22:57;15.60;99.90
29939;DHT22;16799;50.844;5.304;2022-10-26T05:25:23;15.70;99.90
29939;DHT22;16799;50.844;5.304;2022-10-26T05:27:49;15.60;99.90
29939;DHT22;16799;50.844;5.304;2022-10-26T05:30:15;15.70;99.90
29939;DHT22;16799;50.844;5.304;2022-10-26T05:32:40;15.70;99.90
29939;DHT22;16799;50.844;5.304;2022-10-26T05:35:06;15.80;99.90
29939;DHT22;16799;50.844;5.304;2022-10-26T05:37:32;15.80;99.90
29939;DHT22;16799;50.844;5.304;2022-10-26T05:39:57;15.80;99.90
29939;DHT22;16799;50.844;5.304;2022-10-26T05:42:23;15.80;99.90
29939;DHT22;16799;50.844;5.304;2022-10-26T05:44:50;15.80;99.90
29939;DHT22;16799;50.844;5.304;2022-10-26T05:47:15;15.80;99.90
29939;DHT22;16799;50.844;5.304;2022-10-26T05:49:41;15.80;99.90
29939;DHT22;16799;50.844;5.304;2022-10-26T05:52:06;15.90;99.90
29939;DHT22;16799;50.844;5.304;2022-10-26T05:54:32;15.90;99.90
29939;DHT22;16799;50.844;5.304;2022-10-26T05:56:58;15.90;99.90
29939;DHT22;16799;50.844;5.304;2022-10-26T05:59:24;15.90;99.90
29939;DHT22;16799;50.844;5.304;2022-10-26T06:04:37;15.80;99.90
29939;DHT22;16799;50.844;5.304;2022-10-26T06:07:11;15.90;99.90
29939;DHT22;16799;50.844;5.304;2022-10-26T06:09:38;15.80;99.90
29939;DHT22;16799;50.844;5.304;2022-10-26T06:12:04;15.80;99.90
29939;DHT22;16799;50.844;5.304;2022-10-26T06:14:32;15.70;99.90
29939;DHT22;16799;50.844;5.304;2022-10-26T06:26:06;15.50;99.90
29939;DHT22;16799;50.844;5.304;2022-10-26T06:31:10;15.40;99.90
29939;DHT22;16799;50.844;5.304;2022-10-26T06:33:37;15.40;99.90
29939;DHT22;16799;50.844;5.304;2022-10-26T06:38:39;15.40;99.90
29939;DHT22;16799;50.844;5.304;2022-10-26T06:41:07;15.30;99.90
29939;DHT22;16799;50.844;5.304;2022-10-26T06:43:34;15.20;99.90
29939;DHT22;16799;50.844;5.304;2022-10-26T06:46:28;15.30;99.90
29939;DHT22;16799;50.844;5.304;2022-10-26T06:49:13;15.30;99.90
29939;DHT22;16799;50.844;5.304;2022-10-26T06:52:02;15.40;99.90
29939;DHT22;16799;50.844;5.304;2022-10-26T06:54:47;15.40;99.90
29939;DHT22;16799;50.844;5.304;2022-10-26T06:57:16;15.60;99.90
29939;DHT22;16799;50.844;5.304;2022-10-26T06:59:48;15.70;99.90
29939;DHT22;16799;50.844;5.304;2022-10-26T07:02:14;15.70;99.90
29939;DHT22;16799;50.844;5.304;2022-10-26T07:04:41;15.70;99.90
29939;DHT22;16799;50.844;5.304;2022-10-26T07:07:13;15.60;99.90
29939;DHT22;16799;50.844;5.304;2022-10-26T07:09:39;15.50;99.90
29939;DHT22;16799;50.844;5.304;2022-10-26T07:12:05;15.50;99.90
29939;DHT22;16799;50.844;5.304;2022-10-26T07:14:31;15.50;99.90
29939;DHT22;16799;50.844;5.304;2022-10-26T07:16:57;15.40;99.90
29939;DHT22;16799;50.844;5.304;2022-10-26T07:19:23;15.40;99.90
29939;DHT22;16799;50.844;5.304;2022-10-26T07:21:48;15.50;99.90
29939;DHT22;16799;50.844;5.304;2022-10-26T07:24:14;15.60;99.90
29939;DHT22;16799;50.844;5.304;2022-10-26T07:26:40;15.50;99.90
29939;DHT22;16799;50.844;5.304;2022-10-26T07:29:05;15.50;99.90
29939;DHT22;16799;50.844;5.304;2022-10-26T07:31:31;15.60;99.90
29939;DHT22;16799;50.844;5.304;2022-10-26T07:33:57;15.40;99.90
29939;DHT22;16799;50.844;5.304;2022-10-26T07:36:22;15.20;99.90
29939;DHT22;16799;50.844;5.304;2022-10-26T07:38:51;15.40;99.90
29939;DHT22;16799;50.844;5.304;2022-10-26T07:41:18;15.50;99.90
29939;DHT22;16799;50.844;5.304;2022-10-26T07:43:43;15.60;99.90
29939;DHT22;16799;50.844;5.304;2022-10-26T07:46:13;15.60;99.90
29939;DHT22;16799;50.844;5.304;2022-10-26T07:48:40;15.80;99.90
29939;DHT22;16799;50.844;5.304;2022-10-26T07:51:06;15.70;99.90
29939;DHT22;16799;50.844;5.304;2022-10-26T07:53:31;15.80;99.90
29939;DHT22;16799;50.844;5.304;2022-10-26T07:55:57;15.90;99.90
29939;DHT22;16799;50.844;5.304;2022-10-26T07:58:23;16.10;99.90
29939;DHT22;16799;50.844;5.304;2022-10-26T08:00:51;16.30;99.90
29939;DHT22;16799;50.844;5.304;2022-10-26T08:03:17;16.40;99.90
29939;DHT22;16799;50.844;5.304;2022-10-26T08:05:50;16.50;99.90
29939;DHT22;16799;50.844;5.304;2022-10-26T08:08:18;16.60;99.90
29939;DHT22;16799;50.844;5.304;2022-10-26T08:10:45;16.80;99.90
29939;DHT22;16799;50.844;5.304;2022-10-26T08:13:12;17.00;99.90
29939;DHT22;16799;50.844;5.304;2022-10-26T08:15:38;17.20;99.90
29939;DHT22;16799;50.844;5.304;2022-10-26T08:18:04;17.30;99.90
29939;DHT22;16799;50.844;5.304;2022-10-26T08:20:30;17.20;99.90
29939;DHT22;16799;50.844;5.304;2022-10-26T08:22:56;17.10;99.90
29939;DHT22;16799;50.844;5.304;2022-10-26T08:25:22;17.20;99.90
29939;DHT22;16799;50.844;5.304;2022-10-26T08:27:48;17.30;99.90
29939;DHT22;16799;50.844;5.304;2022-10-26T08:30:14;17.50;99.90
29939;DHT22;16799;50.844;5.304;2022-10-26T08:32:39;17.50;99.90
29939;DHT22;16799;50.844;5.304;2022-10-26T08:35:07;17.40;99.90
29939;DHT22;16799;50.844;5.304;2022-10-26T08:37:33;17.50;99.90
29939;DHT22;16799;50.844;5.304;2022-10-26T08:39:58;17.70;99.90
29939;DHT22;16799;50.844;5.304;2022-10-26T08:42:36;17.60;99.90
29939;DHT22;16799;50.844;5.304;2022-10-26T08:45:16;17.90;99.90
29939;DHT22;16799;50.844;5.304;2022-10-26T08:47:48;17.70;99.90
29939;DHT22;16799;50.844;5.304;2022-10-26T08:53:19;17.60;99.90
29939;DHT22;16799;50.844;5.304;2022-10-26T08:56:02;17.70;99.90
29939;DHT22;16799;50.844;5.304;2022-10-26T08:58:37;17.80;99.90
29939;DHT22;16799;50.844;5.304;2022-10-26T09:01:04;18.00;99.90
29939;DHT22;16799;50.844;5.304;2022-10-26T09:03:30;18.00;99.90
29939;DHT22;16799;50.844;5.304;2022-10-26T09:14:18;18.20;99.90
29939;DHT22;16799;50.844;5.304;2022-10-26T09:19:50;18.40;99.90
29939;DHT22;16799;50.844;5.304;2022-10-26T09:22:35;18.70;99.90
29939;DHT22;16799;50.844;5.304;2022-10-26T09:25:17;18.70;99.90
29939;DHT22;16799;50.844;5.304;2022-10-26T09:27:47;18.80;99.90
29939;DHT22;16799;50.844;5.304;2022-10-26T09:30:19;18.80;99.90
29939;DHT22;16799;50.844;5.304;2022-10-26T09:32:51;18.80;99.90
29939;DHT22;16799;50.844;5.304;2022-10-26T09:35:22;18.90;99.90
29939;DHT22;16799;50.844;5.304;2022-10-26T09:37:58;19.00;99.90
29939;DHT22;16799;50.844;5.304;2022-10-26T09:40:45;19.20;99.90
29939;DHT22;16799;50.844;5.304;2022-10-26T09:43:19;19.40;99.90
29939;DHT22;16799;50.844;5.304;2022-10-26T09:45:51;19.70;99.90
29939;DHT22;16799;50.844;5.304;2022-10-26T09:50:54;20.20;99.90
29939;DHT22;16799;50.844;5.304;2022-10-26T09:53:22;20.40;99.90
29939;DHT22;16799;50.844;5.304;2022-10-26T09:55:50;20.70;99.90
29939;DHT22;16799;50.844;5.304;2022-10-26T09:58:26;21.00;99.90
29939;DHT22;16799;50.844;5.304;2022-10-26T10:00:54;21.50;99.90
29939;DHT22;16799;50.844;5.304;2022-10-26T10:03:26;21.90;99.90
29939;DHT22;16799;50.844;5.304;2022-10-26T10:05:52;21.70;99.90
29939;DHT22;16799;50.844;5.304;2022-10-26T10:08:25;21.70;99.90
29939;DHT22;16799;50.844;5.304;2022-10-26T10:13:31;21.70;99.90
29939;DHT22;16799;50.844;5.304;2022-10-26T10:16:02;21.90;99.90
29939;DHT22;16799;50.844;5.304;2022-10-26T10:18:29;21.60;99.90
29939;DHT22;16799;50.844;5.304;2022-10-26T10:20:56;21.90;99.90
29939;DHT22;16799;50.844;5.304;2022-10-26T10:23:34;21.80;99.90
29939;DHT22;16799;50.844;5.304;2022-10-26T10:26:10;21.50;99.90
29939;DHT22;16799;50.844;5.304;2022-10-26T10:28:37;21.90;99.90
29939;DHT22;16799;50.844;5.304;2022-10-26T10:31:26;21.80;99.90
29939;DHT22;16799;50.844;5.304;2022-10-26T10:33:50;21.90;99.90
29939;DHT22;16799;50.844;5.304;2022-10-26T10:36:19;22.00;99.90
29939;DHT22;16799;50.844;5.304;2022-10-26T10:38:47;22.20;99.90
29939;DHT22;16799;50.844;5.304;2022-10-26T10:41:34;22.40;99.90
29939;DHT22;16799;50.844;5.304;2022-10-26T10:44:25;22.50;99.90
29939;DHT22;16799;50.844;5.304;2022-10-26T10:47:05;22.40;99.90
29939;DHT22;16799;50.844;5.304;2022-10-26T10:49:32;22.70;99.90
29939;DHT22;16799;50.844;5.304;2022-10-26T10:51:59;22.90;99.90
29939;DHT22;16799;50.844;5.304;2022-10-26T10:54:29;23.40;99.90
29939;DHT22;16799;50.844;5.304;2022-10-26T10:57:17;23.90;98.90
29939;DHT22;16799;50.844;5.304;2022-10-26T11:02:29;23.60;98.50
29939;DHT22;16799;50.844;5.304;2022-10-26T11:10:35;23.30;99.20
29939;DHT22;16799;50.844;5.304;2022-10-26T11:13:11;24.00;98.10
29939;DHT22;16799;50.844;5.304;2022-10-26T11:15:40;24.30;97.20
29939;DHT22;16799;50.844;5.304;2022-10-26T11:18:12;24.10;95.90
29939;DHT22;16799;50.844;5.304;2022-10-26T11:20:46;24.00;96.90
29939;DHT22;16799;50.844;5.304;2022-10-26T11:23:36;24.50;96.10
29939;DHT22;16799;50.844;5.304;2022-10-26T11:29:18;25.70;92.90
29939;DHT22;16799;50.844;5.304;2022-10-26T11:31:51;25.50;92.20
29939;DHT22;16799;50.844;5.304;2022-10-26T11:34:41;25.20;92.40
29939;DHT22;16799;50.844;5.304;2022-10-26T11:39:44;24.20;93.40
29939;DHT22;16799;50.844;5.304;2022-10-26T11:42:32;24.60;93.50
29939;DHT22;16799;50.844;5.304;2022-10-26T11:45:08;24.70;93.00
29939;DHT22;16799;50.844;5.304;2022-10-26T11:47:50;24.40;93.70
29939;DHT22;16799;50.844;5.304;2022-10-26T11:50:24;24.80;92.60
29939;DHT22;16799;50.844;5.304;2022-10-26T11:55:22;24.50;93.10
29939;DHT22;16799;50.844;5.304;2022-10-26T11:57:49;24.00;93.80
29939;DHT22;16799;50.844;5.304;2022-10-26T12:00:17;24.20;93.20
29939;DHT22;16799;50.844;5.304;2022-10-26T12:03:00;24.20;93.10
29939;DHT22;16799;50.844;5.304;2022-10-26T12:05:48;24.00;93.20
29939;DHT22;16799;50.844;5.304;2022-10-26T12:08:35;24.50;93.30
29939;DHT22;16799;50.844;5.304;2022-10-26T12:11:33;24.30;92.30
29939;DHT22;16799;50.844;5.304;2022-10-26T12:14:11;23.60;93.10
29939;DHT22;16799;50.844;5.304;2022-10-26T12:22:44;23.90;93.50
29939;DHT22;16799;50.844;5.304;2022-10-26T12:35:28;24.80;92.60
29939;DHT22;16799;50.844;5.304;2022-10-26T12:37:54;25.60;91.10
29939;DHT22;16799;50.844;5.304;2022-10-26T12:45:40;25.80;90.60
29939;DHT22;16799;50.844;5.304;2022-10-26T12:48:23;26.00;90.90
29939;DHT22;16799;50.844;5.304;2022-10-26T12:50:50;27.20;87.40
29939;DHT22;16799;50.844;5.304;2022-10-26T12:53:21;27.50;85.20
29939;DHT22;16799;50.844;5.304;2022-10-26T13:03:34;25.90;87.60
29939;DHT22;16799;50.844;5.304;2022-10-26T13:08:55;25.70;88.20
29939;DHT22;16799;50.844;5.304;2022-10-26T13:11:31;24.80;89.80
29939;DHT22;16799;50.844;5.304;2022-10-26T13:14:04;24.20;91.40
29939;DHT22;16799;50.844;5.304;2022-10-26T13:16:30;23.80;91.40
29939;DHT22;16799;50.844;5.304;2022-10-26T13:18:57;23.80;92.20
29939;DHT22;16799;50.844;5.304;2022-10-26T13:21:24;23.40;92.30
29939;DHT22;16799;50.844;5.304;2022-10-26T13:26:24;22.30;95.20
29939;DHT22;16799;50.844;5.304;2022-10-26T13:28:52;22.20;96.20
29939;DHT22;16799;50.844;5.304;2022-10-26T13:33:56;22.50;96.30
29939;DHT22;16799;50.844;5.304;2022-10-26T13:36:35;22.40;96.30
29939;DHT22;16799;50.844;5.304;2022-10-26T13:39:09;22.30;97.10
29939;DHT22;16799;50.844;5.304;2022-10-26T13:41:39;22.10;97.30
29939;DHT22;16799;50.844;5.304;2022-10-26T13:44:24;22.30;97.70
29939;DHT22;16799;50.844;5.304;2022-10-26T13:46:53;22.20;96.60
29939;DHT22;16799;50.844;5.304;2022-10-26T13:49:26;22.00;97.20
29939;DHT22;16799;50.844;5.304;2022-10-26T13:51:53;22.10;97.40
29939;DHT22;16799;50.844;5.304;2022-10-26T13:54:27;22.00;97.60
29939;DHT22;16799;50.844;5.304;2022-10-26T13:59:33;22.10;97.40
29939;DHT22;16799;50.844;5.304;2022-10-26T14:02:23;22.20;97.70
29939;DHT22;16799;50.844;5.304;2022-10-26T14:04:59;22.30;97.30
29939;DHT22;16799;50.844;5.304;2022-10-26T14:07:47;22.10;97.40
29939;DHT22;16799;50.844;5.304;2022-10-26T14:12:50;22.00;97.50
29939;DHT22;16799;50.844;5.304;2022-10-26T14:15:18;21.90;97.40
29939;DHT22;16799;50.844;5.304;2022-10-26T14:17:49;21.80;98.00
29939;DHT22;16799;50.844;5.304;2022-10-26T14:20:20;21.80;98.10
29939;DHT22;16799;50.844;5.304;2022-10-26T14:22:47;21.80;98.60
29939;DHT22;16799;50.844;5.304;2022-10-26T14:27:50;22.00;98.30
29939;DHT22;16799;50.844;5.304;2022-10-26T14:30:28;21.90;97.60
29939;DHT22;16799;50.844;5.304;2022-10-26T14:32:55;21.70;98.10
29939;DHT22;16799;50.844;5.304;2022-10-26T14:35:24;21.80;97.90
29939;DHT22;16799;50.844;5.304;2022-10-26T14:38:25;21.70;98.60
29939;DHT22;16799;50.844;5.304;2022-10-26T14:40:56;21.60;98.60
29939;DHT22;16799;50.844;5.304;2022-10-26T14:43:23;21.60;99.00
29939;DHT22;16799;50.844;5.304;2022-10-26T14:45:51;21.60;99.60
29939;DHT22;16799;50.844;5.304;2022-10-26T14:51:14;21.60;99.90
29939;DHT22;16799;50.844;5.304;2022-10-26T14:53:50;21.60;99.90
29939;DHT22;16799;50.844;5.304;2022-10-26T14:56:24;21.50;99.90
29939;DHT22;16799;50.844;5.304;2022-10-26T14:58:53;21.50;99.90
29939;DHT22;16799;50.844;5.304;2022-10-26T15:01:24;21.50;99.90
29939;DHT22;16799;50.844;5.304;2022-10-26T15:04:02;21.40;99.90
29939;DHT22;16799;50.844;5.304;2022-10-26T15:06:29;21.50;99.90
29939;DHT22;16799;50.844;5.304;2022-10-26T15:08:56;21.40;99.90
29939;DHT22;16799;50.844;5.304;2022-10-26T15:11:27;21.30;99.90
29939;DHT22;16799;50.844;5.304;2022-10-26T15:13:53;21.30;99.90
29939;DHT22;16799;50.844;5.304;2022-10-26T15:16:28;21.20;99.90
29939;DHT22;16799;50.844;5.304;2022-10-26T15:18:57;21.10;99.90
29939;DHT22;16799;50.844;5.304;2022-10-26T15:21:31;21.10;99.90
29939;DHT22;16799;50.844;5.304;2022-10-26T15:23:59;21.10;99.90
29939;DHT22;16799;50.844;5.304;2022-10-26T15:26:25;20.90;99.90
29939;DHT22;16799;50.844;5.304;2022-10-26T15:28:52;20.90;99.90
29939;DHT22;16799;50.844;5.304;2022-10-26T15:36:26;20.70;99.90
29939;DHT22;16799;50.844;5.304;2022-10-26T15:38:52;20.80;99.90
29939;DHT22;16799;50.844;5.304;2022-10-26T15:43:54;21.00;99.90
29939;DHT22;16799;50.844;5.304;2022-10-26T15:46:24;20.90;99.90
29939;DHT22;16799;50.844;5.304;2022-10-26T15:48:55;20.80;99.90
29939;DHT22;16799;50.844;5.304;2022-10-26T15:51:22;20.90;99.90
29939;DHT22;16799;50.844;5.304;2022-10-26T15:53:48;20.70;99.90
29939;DHT22;16799;50.844;5.304;2022-10-26T15:56:20;20.60;99.90
29939;DHT22;16799;50.844;5.304;2022-10-26T15:58:48;20.60;99.90
29939;DHT22;16799;50.844;5.304;2022-10-26T16:01:25;20.50;99.90
29939;DHT22;16799;50.844;5.304;2022-10-26T16:03:51;20.40;99.90
29939;DHT22;16799;50.844;5.304;2022-10-26T16:06:38;20.40;99.90
29939;DHT22;16799;50.844;5.304;2022-10-26T16:09:06;20.30;99.90
29939;DHT22;16799;50.844;5.304;2022-10-26T16:11:34;20.20;99.90
29939;DHT22;16799;50.844;5.304;2022-10-26T16:13:59;20.10;99.90
29939;DHT22;16799;50.844;5.304;2022-10-26T16:16:25;20.10;99.90
29939;DHT22;16799;50.844;5.304;2022-10-26T16:18:55;20.10;99.90
29939;DHT22;16799;50.844;5.304;2022-10-26T16:21:22;20.10;99.90
29939;DHT22;16799;50.844;5.304;2022-10-26T16:23:52;20.30;99.90
29939;DHT22;16799;50.844;5.304;2022-10-26T16:26:18;20.30;99.90
29939;DHT22;16799;50.844;5.304;2022-10-26T16:28:44;20.30;99.90
29939;DHT22;16799;50.844;5.304;2022-10-26T16:31:15;20.40;99.90
29939;DHT22;16799;50.844;5.304;2022-10-26T16:33:41;20.30;99.90
29939;DHT22;16799;50.844;5.304;2022-10-26T16:36:09;20.30;99.90
29939;DHT22;16799;50.844;5.304;2022-10-26T16:38:35;20.10;99.90
29939;DHT22;16799;50.844;5.304;2022-10-26T16:41:07;19.90;99.90
29939;DHT22;16799;50.844;5.304;2022-10-26T16:43:36;19.90;99.90
29939;DHT22;16799;50.844;5.304;2022-10-26T16:46:11;19.80;99.90
29939;DHT22;16799;50.844;5.304;2022-10-26T16:48:39;19.70;99.90
29939;DHT22;16799;50.844;5.304;2022-10-26T16:53:35;19.70;99.90
29939;DHT22;16799;50.844;5.304;2022-10-26T16:56:05;19.60;99.90
29939;DHT22;16799;50.844;5.304;2022-10-26T16:58:31;19.60;99.90
29939;DHT22;16799;50.844;5.304;2022-10-26T17:00:57;19.50;99.90
29939;DHT22;16799;50.844;5.304;2022-10-26T17:03:23;19.40;99.90
29939;DHT22;16799;50.844;5.304;2022-10-26T17:05:57;19.40;99.90
29939;DHT22;16799;50.844;5.304;2022-10-26T17:08:23;19.30;99.90
29939;DHT22;16799;50.844;5.304;2022-10-26T17:10:48;19.40;99.90
29939;DHT22;16799;50.844;5.304;2022-10-26T17:13:14;19.30;99.90
29939;DHT22;16799;50.844;5.304;2022-10-26T17:15:39;19.30;99.90
29939;DHT22;16799;50.844;5.304;2022-10-26T17:18:05;19.20;99.90
29939;DHT22;16799;50.844;5.304;2022-10-26T17:20:32;19.20;99.90
29939;DHT22;16799;50.844;5.304;2022-10-26T17:22:58;19.10;99.90
29939;DHT22;16799;50.844;5.304;2022-10-26T17:25:23;19.00;99.90
29939;DHT22;16799;50.844;5.304;2022-10-26T17:27:49;18.90;99.90
29939;DHT22;16799;50.844;5.304;2022-10-26T17:30:15;18.90;99.90
29939;DHT22;16799;50.844;5.304;2022-10-26T17:32:41;18.90;99.90
29939;DHT22;16799;50.844;5.304;2022-10-26T17:35:07;19.00;99.90
29939;DHT22;16799;50.844;5.304;2022-10-26T17:37:33;18.80;99.90
29939;DHT22;16799;50.844;5.304;2022-10-26T17:39:59;18.80;99.90
29939;DHT22;16799;50.844;5.304;2022-10-26T17:42:25;18.80;99.90
29939;DHT22;16799;50.844;5.304;2022-10-26T17:44:50;18.60;99.90
29939;DHT22;16799;50.844;5.304;2022-10-26T17:47:16;18.50;99.90
29939;DHT22;16799;50.844;5.304;2022-10-26T17:49:42;18.40;99.90
29939;DHT22;16799;50.844;5.304;2022-10-26T17:52:07;18.30;99.90
29939;DHT22;16799;50.844;5.304;2022-10-26T17:54:33;18.20;99.90
29939;DHT22;16799;50.844;5.304;2022-10-26T17:56:58;18.00;99.90